Time;durP1;ratioP1;P1;durP2;ratioP2;P2;SDS_P1;SDS_P2;PMS_P1;PMS_P2;Temp;Humidity;BMP_temperature;BMP_pressure;BME280_temperature;BME280_humidity;BME280_pressure;Samples;Min_cycle;Max_cycle;Signal;HPM_P1;HPM_P2
2022/10/31 00:00:07;;;;;;;14.32;5.25;;;;;;;7.29;100.00;95976.25;4996620;28;20037;-79
2022/10/31 00:02:53;;;;;;;14.05;5.78;;;;;;;7.19;100.00;95981.31;4997622;28;20066;-78
2022/10/31 00:05:19;;;;;;;17.23;5.85;;;;;;;7.05;100.00;95976.41;5004108;28;20406;-79
2022/10/31 00:07:44;;;;;;;19.70;5.93;;;;;;;7.02;100.00;95976.06;4996354;28;20038;-79
2022/10/31 00:10:10;;;;;;;18.55;5.85;;;;;;;7.05;100.00;95981.63;4993513;28;20038;-78
2022/10/31 00:12:35;;;;;;;13.00;5.40;;;;;;;7.15;100.00;95980.19;4998049;28;20184;-79
2022/10/31 00:15:00;;;;;;;17.80;5.65;;;;;;;7.17;100.00;95976.31;4998828;28;20041;-79
2022/10/31 00:17:26;;;;;;;17.08;5.15;;;;;;;7.15;100.00;95967.13;5006817;28;20749;-78
2022/10/31 00:19:51;;;;;;;14.77;5.55;;;;;;;7.19;100.00;95968.25;5000761;28;20052;-78
2022/10/31 00:22:17;;;;;;;16.38;4.82;;;;;;;7.17;100.00;95972.91;5005795;28;20049;-78
2022/10/31 00:24:42;;;;;;;17.35;5.60;;;;;;;7.17;100.00;95967.66;5013953;28;20531;-79
2022/10/31 00:27:08;;;;;;;13.85;5.22;;;;;;;7.21;100.00;95974.81;4994301;28;20152;-79
2022/10/31 00:29:33;;;;;;;15.07;5.25;;;;;;;7.20;100.00;95977.69;4996047;28;20103;-78
2022/10/31 00:31:59;;;;;;;19.30;6.05;;;;;;;7.04;100.00;95963.50;4981685;28;20041;-79
2022/10/31 00:34:24;;;;;;;18.02;5.85;;;;;;;7.06;100.00;95966.72;5008632;28;20042;-80
2022/10/31 00:36:50;;;;;;;17.35;5.50;;;;;;;7.03;100.00;95967.97;4997875;28;20121;-79
2022/10/31 00:39:15;;;;;;;15.95;5.43;;;;;;;7.08;100.00;95960.22;4980673;28;20057;-79
2022/10/31 00:41:41;;;;;;;27.90;5.82;;;;;;;7.00;100.00;95968.44;5000208;28;20042;-80
2022/10/31 00:44:07;;;;;;;12.60;4.75;;;;;;;6.98;100.00;95959.22;4987006;28;20038;-79
2022/10/31 00:46:32;;;;;;;15.23;5.35;;;;;;;7.02;100.00;95955.91;5016577;28;20050;-79
2022/10/31 00:48:58;;;;;;;13.82;6.10;;;;;;;6.98;100.00;95965.25;4993570;28;20046;-78
2022/10/31 00:51:23;;;;;;;14.38;5.28;;;;;;;6.97;100.00;95963.69;5012505;28;20077;-79
2022/10/31 00:53:49;;;;;;;18.63;5.00;;;;;;;6.84;100.00;95961.31;4996822;28;20034;-79
2022/10/31 00:56:14;;;;;;;16.33;5.80;;;;;;;6.79;100.00;95961.25;5015944;28;20042;-79
2022/10/31 00:58:39;;;;;;;17.67;5.45;;;;;;;6.78;100.00;95967.50;4997285;28;20449;-78
2022/10/31 01:01:05;;;;;;;26.17;5.97;;;;;;;6.78;100.00;95964.88;5010580;28;20065;-79
2022/10/31 01:03:33;;;;;;;20.77;5.60;;;;;;;6.78;100.00;95964.88;4995258;28;20045;-80
2022/10/31 01:06:01;;;;;;;12.65;5.45;;;;;;;6.85;100.00;95966.34;4989278;28;20042;-79
2022/10/31 01:08:27;;;;;;;12.30;4.97;;;;;;;6.84;100.00;95961.31;4995987;28;20410;-80
2022/10/31 01:11:11;;;;;;;15.40;5.15;;;;;;;6.84;100.00;95958.72;4988396;28;20041;-80
2022/10/31 01:13:37;;;;;;;14.98;5.40;;;;;;;6.86;100.00;95961.91;4997167;28;20038;-79
2022/10/31 01:16:06;;;;;;;16.33;6.10;;;;;;;6.85;100.00;95957.69;5020126;28;20046;-78
2022/10/31 01:18:32;;;;;;;14.95;5.60;;;;;;;6.83;100.00;95957.16;5000513;28;20514;-79
2022/10/31 01:21:00;;;;;;;16.25;6.05;;;;;;;6.70;100.00;95964.22;4998312;28;20038;-79
2022/10/31 01:23:26;;;;;;;16.90;5.70;;;;;;;6.72;100.00;95950.91;5019516;28;20075;-79
2022/10/31 01:26:06;;;;;;;22.02;5.85;;;;;;;6.74;100.00;95957.50;5008665;28;20094;-78
2022/10/31 01:28:33;;;;;;;16.13;5.70;;;;;;;6.76;100.00;95963.28;5012086;28;20042;-78
2022/10/31 01:31:03;;;;;;;15.77;5.82;;;;;;;6.75;100.00;95961.72;5019536;28;20046;-79
2022/10/31 01:33:29;;;;;;;16.58;5.18;;;;;;;6.72;100.00;95964.81;5014455;28;20037;-79
2022/10/31 01:35:55;;;;;;;15.90;5.57;;;;;;;6.72;100.00;95967.44;5017696;28;20046;-79
2022/10/31 01:38:20;;;;;;;17.65;5.20;;;;;;;6.71;100.00;95960.59;5005259;28;20104;-78
2022/10/31 01:40:46;;;;;;;15.20;5.78;;;;;;;6.69;100.00;95957.41;4995095;28;20038;-78
2022/10/31 01:43:13;;;;;;;19.35;5.45;;;;;;;6.69;100.00;95957.41;4997985;28;20042;-79
2022/10/31 01:45:40;;;;;;;17.95;5.90;;;;;;;6.62;100.00;95959.38;4981615;28;20046;-79
2022/10/31 01:48:13;;;;;;;14.07;5.60;;;;;;;6.56;100.00;95948.00;4995348;28;20042;-80
2022/10/31 01:50:39;;;;;;;20.23;5.40;;;;;;;6.57;100.00;95959.28;5019931;28;20421;-79
2022/10/31 01:53:08;;;;;;;17.77;5.60;;;;;;;6.55;100.00;95950.84;4996733;28;20042;-79
2022/10/31 01:55:37;;;;;;;14.15;5.55;;;;;;;6.62;100.00;95961.97;4997581;28;20049;-80
2022/10/31 01:58:18;;;;;;;22.90;5.70;;;;;;;6.71;100.00;95955.38;5013317;28;20050;-81
2022/10/31 02:00:48;;;;;;;17.20;5.47;;;;;;;6.64;100.00;95964.34;4994765;28;20041;-80
2022/10/31 02:03:16;;;;;;;15.23;5.60;;;;;;;6.53;100.00;95958.16;5014733;28;20709;-79
2022/10/31 02:05:42;;;;;;;20.77;6.28;;;;;;;6.50;100.00;95954.19;5013607;28;20042;-77
2022/10/31 02:08:17;;;;;;;17.85;5.53;;;;;;;6.52;100.00;95951.31;5014371;28;20731;-76
2022/10/31 02:10:43;;;;;;;13.27;5.28;;;;;;;6.43;100.00;95948.28;4997883;28;20534;-75
2022/10/31 02:13:10;;;;;;;17.63;6.10;;;;;;;6.43;100.00;95952.72;4997283;28;20045;-76
2022/10/31 02:15:38;;;;;;;14.65;6.00;;;;;;;6.48;100.00;95950.19;5001182;28;20092;-75
2022/10/31 02:18:05;;;;;;;14.65;5.20;;;;;;;6.48;100.00;95952.81;5010803;28;20038;-75
2022/10/31 02:20:39;;;;;;;19.10;5.85;;;;;;;6.52;100.00;95953.94;5011245;28;20041;-75
2022/10/31 02:23:33;;;;;;;16.30;5.10;;;;;;;6.50;100.00;95953.38;5021142;28;20042;-76
2022/10/31 02:26:01;;;;;;;16.17;5.05;;;;;;;6.49;100.00;95949.19;5021136;28;20468;-80
2022/10/31 02:28:33;;;;;;;17.05;5.68;;;;;;;6.51;100.00;95955.00;4992405;28;20043;-78
2022/10/31 02:31:08;;;;;;;20.48;5.10;;;;;;;6.48;100.00;95950.19;4993610;28;20043;-77
2022/10/31 02:33:52;;;;;;;17.73;5.50;;;;;;;6.44;100.00;95954.31;5000671;28;20046;-78
2022/10/31 02:36:25;;;;;;;12.15;5.28;;;;;;;6.45;100.00;95958.50;4992127;28;20038;-79
2022/10/31 02:39:02;;;;;;;13.85;4.55;;;;;;;6.42;100.00;95959.75;5009127;28;20041;-79
2022/10/31 02:41:40;;;;;;;17.23;5.05;;;;;;;6.41;100.00;95960.81;4992256;28;20034;-79
2022/10/31 02:44:12;;;;;;;13.00;5.20;;;;;;;6.40;100.00;95960.00;4988129;28;20057;-79
2022/10/31 02:46:46;;;;;;;18.10;4.82;;;;;;;6.45;100.00;95955.91;4988405;28;20117;-79
2022/10/31 02:49:21;;;;;;;15.23;4.95;;;;;;;6.44;100.00;95954.31;5012409;28;20038;-78
2022/10/31 02:51:46;;;;;;;15.00;5.22;;;;;;;6.37;100.00;95960.47;4998890;28;20456;-78
2022/10/31 02:54:22;;;;;;;26.75;5.80;;;;;;;6.27;100.00;95955.03;5002422;28;20121;-78
2022/10/31 02:56:50;;;;;;;14.65;5.65;;;;;;;6.29;100.00;95952.97;4992656;28;20120;-78
2022/10/31 02:59:17;;;;;;;21.52;5.68;;;;;;;6.28;100.00;95947.97;4992915;28;20064;-80
2022/10/31 03:01:56;;;;;;;15.63;5.40;;;;;;;6.25;100.00;95957.09;5009519;28;20050;-81
2022/10/31 03:04:43;;;;;;;19.05;6.03;;;;;;;6.23;100.00;95959.13;5011465;28;20442;-80
2022/10/31 03:07:30;;;;;;;16.90;5.60;;;;;;;6.28;100.00;95961.84;4999103;28;20121;-79
2022/10/31 03:10:04;;;;;;;15.65;5.18;;;;;;;6.28;100.00;95955.81;5006010;28;20042;-79
2022/10/31 03:12:49;;;;;;;;;;;;;;;6.22;100.00;95958.34;4993534;28;20088;-78
2022/10/31 03:15:29;;;;;;;21.00;5.33;;;;;;;6.20;100.00;95959.59;5006014;28;19922;-78
2022/10/31 03:18:04;;;;;;;16.95;6.07;;;;;;;6.18;100.00;95959.03;5009383;28;20064;-78
2022/10/31 03:20:37;;;;;;;19.17;6.13;;;;;;;6.09;100.00;95949.94;5010203;28;20034;-78
2022/10/31 03:23:05;;;;;;;21.08;5.57;;;;;;;6.10;100.00;95959.38;5011458;28;20046;-78
2022/10/31 03:25:32;;;;;;;12.38;5.03;;;;;;;6.12;100.00;95962.56;4998088;28;20039;-78
2022/10/31 03:28:01;;;;;;;12.82;5.22;;;;;;;6.11;100.00;95955.75;4996533;28;20077;-77
2022/10/31 03:30:27;;;;;;;13.40;5.20;;;;;;;6.07;100.00;95961.41;5003156;28;20053;-76
2022/10/31 03:32:56;;;;;;;13.90;5.07;;;;;;;5.98;100.00;95957.56;5017255;28;20042;-76
2022/10/31 03:35:25;;;;;;;18.70;5.68;;;;;;;5.97;100.00;95961.19;5001100;28;20057;-76
2022/10/31 03:37:53;;;;;;;18.65;5.90;;;;;;;6.00;100.00;95955.50;4986934;28;20063;-77
2022/10/31 03:40:21;;;;;;;10.93;5.03;;;;;;;6.01;100.00;95957.13;4992593;28;20038;-78
2022/10/31 03:42:54;;;;;;;15.27;5.53;;;;;;;6.01;100.00;95951.88;5000783;28;20048;-78
2022/10/31 03:45:25;;;;;;;17.10;5.45;;;;;;;6.03;100.00;95960.31;4988233;28;20054;-78
2022/10/31 03:47:53;;;;;;;14.77;5.22;;;;;;;6.01;100.00;95957.13;5008522;28;20041;-78
2022/10/31 03:50:19;;;;;;;12.70;4.82;;;;;;;5.99;100.00;95964.41;5018503;28;20042;-78
2022/10/31 03:53:07;;;;;;;12.15;5.18;;;;;;;5.91;100.00;95956.88;4985527;28;20034;-78
2022/10/31 03:56:07;;;;;;;9.48;4.88;;;;;;;5.82;100.00;95953.00;4987010;28;20047;-78
2022/10/31 03:58:42;;;;;;;16.88;5.15;;;;;;;5.87;100.00;95960.97;4989948;28;20062;-78
2022/10/31 04:01:11;;;;;;;15.88;5.30;;;;;;;5.90;100.00;95955.28;4981613;28;20053;-79
2022/10/31 04:03:38;;;;;;;20.52;5.55;;;;;;;5.90;100.00;95955.28;5000987;28;20492;-78
2022/10/31 04:06:08;;;;;;;16.25;5.60;;;;;;;5.76;100.00;95948.69;4998902;28;20573;-77
2022/10/31 04:08:41;;;;;;;14.57;5.70;;;;;;;5.75;100.00;95962.75;4994318;28;20054;-78
2022/10/31 04:11:09;;;;;;;20.75;6.57;;;;;;;5.76;100.00;95959.13;5010710;28;20049;-78
2022/10/31 04:13:37;;;;;;;14.05;5.00;;;;;;;5.73;100.00;95955.97;5012561;28;20525;-78
2022/10/31 04:16:03;;;;;;;12.70;5.03;;;;;;;5.82;100.00;95955.59;5009404;28;20097;-78
2022/10/31 04:18:29;;;;;;;16.48;5.22;;;;;;;5.73;100.00;95945.53;4983957;28;20056;-78
2022/10/31 04:21:03;;;;;;;14.85;5.22;;;;;;;5.75;100.00;95960.16;5007063;28;20129;-78
2022/10/31 04:23:30;;;;;;;9.90;4.53;;;;;;;5.79;100.00;95956.88;4988976;28;20042;-78
2022/10/31 04:25:55;;;;;;;13.13;4.53;;;;;;;5.75;100.00;95957.53;4978455;28;20047;-78
2022/10/31 04:28:21;;;;;;;18.10;5.25;;;;;;;5.83;100.00;95949.38;5000850;28;20123;-79
2022/10/31 04:30:46;;;;;;;15.45;5.55;;;;;;;5.75;100.00;95957.53;4995560;28;20480;-78
2022/10/31 04:33:12;;;;;;;21.35;5.30;;;;;;;5.68;100.00;95955.06;4989341;28;20248;-78
2022/10/31 04:35:37;;;;;;;16.65;5.63;;;;;;;5.79;100.00;95963.91;5027576;28;20818;-78
2022/10/31 04:38:03;;;;;;;18.45;6.13;;;;;;;5.76;100.00;95964.38;4990671;28;20045;-78
2022/10/31 04:40:28;;;;;;;15.70;4.97;;;;;;;5.70;100.00;95966.88;4995289;28;20048;-78
2022/10/31 04:42:54;;;;;;;19.60;5.70;;;;;;;5.75;100.00;95970.59;5007254;28;20038;-78
2022/10/31 04:45:19;;;;;;;13.40;5.03;;;;;;;5.76;100.00;95967.78;4994814;28;20074;-78
2022/10/31 04:47:44;;;;;;;18.02;5.07;;;;;;;5.70;100.00;95966.88;4993279;28;20050;-78
2022/10/31 04:50:10;;;;;;;17.60;4.93;;;;;;;5.58;100.00;95968.66;4979937;28;20458;-78
2022/10/31 04:52:42;;;;;;;19.02;5.18;;;;;;;5.61;100.00;95972.66;5003244;28;20042;-77
2022/10/31 04:55:09;;;;;;;12.93;4.97;;;;;;;5.61;100.00;95973.44;4979567;28;20096;-78
2022/10/31 04:57:45;;;;;;;11.27;4.95;;;;;;;5.54;100.00;95967.53;5011245;28;20458;-78
2022/10/31 05:00:13;;;;;;;12.80;4.97;;;;;;;5.55;100.00;95969.13;4997231;28;20034;-78
2022/10/31 05:02:46;;;;;;;18.02;5.05;;;;;;;5.55;100.00;95974.34;4997908;28;20046;-78
2022/10/31 05:05:13;;;;;;;13.63;5.10;;;;;;;5.53;100.00;95960.72;5031112;28;20052;-78
2022/10/31 05:07:41;;;;;;;14.40;5.22;;;;;;;5.56;100.00;95970.72;5015127;28;20046;-78
2022/10/31 05:10:12;;;;;;;13.50;5.40;;;;;;;5.48;100.00;95963.22;4995750;28;20050;-78
2022/10/31 05:12:38;;;;;;;13.23;5.05;;;;;;;5.47;100.00;95956.41;4998378;28;20042;-78
2022/10/31 05:15:05;;;;;;;19.02;5.32;;;;;;;5.47;100.00;95959.00;4998297;28;20049;-77
2022/10/31 05:17:31;;;;;;;15.23;4.63;;;;;;;5.44;100.00;95962.06;5015392;28;20541;-78
2022/10/31 05:19:56;;;;;;;17.42;5.03;;;;;;;5.36;100.00;95956.16;4978979;28;20147;-78
2022/10/31 05:22:22;;;;;;;19.95;4.95;;;;;;;5.38;100.00;95958.53;4989552;28;20042;-78
2022/10/31 05:24:47;;;;;;;15.18;4.65;;;;;;;5.38;100.00;95954.13;4993079;28;20046;-78
2022/10/31 05:27:13;;;;;;;14.73;5.63;;;;;;;5.35;100.00;95953.78;4997661;28;20108;-78
2022/10/31 05:29:38;;;;;;;14.88;5.05;;;;;;;5.29;100.00;95955.47;5013836;28;20120;-79
2022/10/31 05:32:04;;;;;;;12.98;5.50;;;;;;;5.30;100.00;95946.63;5000462;28;20127;-79
2022/10/31 05:34:29;;;;;;;15.63;4.93;;;;;;;5.37;100.00;95947.31;5014150;28;20045;-79
2022/10/31 05:36:55;;;;;;;15.07;5.10;;;;;;;5.33;100.00;95948.78;5017990;28;20121;-79
2022/10/31 05:39:20;;;;;;;18.02;5.32;;;;;;;5.27;100.00;95941.88;4993777;28;20065;-79
2022/10/31 05:41:46;;;;;;;16.88;5.55;;;;;;;5.28;100.00;95938.22;4997035;28;20046;-79
2022/10/31 05:44:11;;;;;;;9.73;4.75;;;;;;;5.28;100.00;95943.44;4988614;28;20521;-78
2022/10/31 05:46:37;;;;;;;14.50;5.13;;;;;;;5.22;100.00;95939.13;5014919;28;20057;-79
2022/10/31 05:49:02;;;;;;;19.27;5.53;;;;;;;5.22;100.00;95939.13;5001755;28;20042;-81
2022/10/31 05:51:28;;;;;;;13.02;5.20;;;;;;;5.23;100.00;95948.56;5002815;28;20509;-81
2022/10/31 05:53:53;;;;;;;13.05;5.00;;;;;;;5.25;100.00;95949.09;4994173;28;20042;-81
2022/10/31 05:56:19;;;;;;;13.85;5.03;;;;;;;5.33;100.00;95943.56;5013584;28;20042;-81
2022/10/31 05:58:44;;;;;;;20.17;5.38;;;;;;;5.26;100.00;95937.66;4994818;28;20053;-82
2022/10/31 06:01:10;;;;;;;16.23;4.90;;;;;;;5.29;100.00;95939.03;5006319;28;20033;-79
2022/10/31 06:03:35;;;;;;;13.23;5.43;;;;;;;5.26;100.00;95940.28;5008057;28;20042;-79
2022/10/31 06:06:01;;;;;;;14.85;4.82;;;;;;;5.27;100.00;95951.50;4995345;28;20093;-77
2022/10/31 06:08:27;;;;;;;11.50;4.55;;;;;;;5.27;100.00;95946.28;5010968;28;20050;-78
2022/10/31 06:10:53;;;;;;;13.68;5.25;;;;;;;5.29;100.00;95952.06;5010760;28;20030;-77
2022/10/31 06:13:19;;;;;;;15.95;4.93;;;;;;;5.29;100.00;95952.88;5004887;28;20050;-79
2022/10/31 06:15:44;;;;;;;15.27;5.05;;;;;;;5.28;100.00;95948.66;5011702;28;20038;-77
2022/10/31 06:18:10;;;;;;;15.43;5.57;;;;;;;5.31;100.00;95963.84;4997038;28;20049;-78
2022/10/31 06:20:36;;;;;;;10.90;5.05;;;;;;;5.31;100.00;95958.63;4998919;28;20422;-79
2022/10/31 06:23:02;;;;;;;18.95;5.22;;;;;;;5.22;100.00;95954.78;4995287;28;20411;-77
2022/10/31 06:25:28;;;;;;;26.23;5.63;;;;;;;5.29;100.00;95960.69;5007217;28;20109;-79
2022/10/31 06:27:54;;;;;;;12.25;5.20;;;;;;;5.32;100.00;95960.25;4996505;28;20404;-80
2022/10/31 06:30:19;;;;;;;21.55;5.93;;;;;;;5.37;100.00;95957.75;5008736;28;20056;-79
2022/10/31 06:32:45;;;;;;;14.00;5.43;;;;;;;5.48;100.00;95961.41;5015172;28;20049;-79
2022/10/31 06:35:11;;;;;;;15.77;5.43;;;;;;;5.45;100.00;95959.25;4984349;28;20045;-78
2022/10/31 06:37:37;;;;;;;17.42;5.47;;;;;;;5.48;100.00;95958.00;5006155;28;20511;-80
2022/10/31 06:40:02;;;;;;;13.77;5.53;;;;;;;5.49;100.00;95954.38;4976992;28;20074;-79
2022/10/31 06:42:28;;;;;;;13.68;5.45;;;;;;;5.53;100.00;95960.72;4995379;28;20117;-79
2022/10/31 06:44:53;;;;;;;15.45;5.57;;;;;;;5.55;100.00;95946.41;4986518;28;20045;-79
2022/10/31 06:47:19;;;;;;;18.25;5.97;;;;;;;5.64;100.00;95951.31;5010586;28;20045;-82
2022/10/31 06:49:45;;;;;;;18.02;5.63;;;;;;;5.75;100.00;95947.09;4994081;28;20104;-83
2022/10/31 06:52:11;;;;;;;15.50;5.32;;;;;;;5.76;100.00;95951.31;4998090;28;20089;-81
2022/10/31 06:54:36;;;;;;;10.90;5.30;;;;;;;5.80;100.00;95955.06;4993682;28;20518;-78
2022/10/31 06:57:02;;;;;;;13.63;5.25;;;;;;;5.82;100.00;95958.22;4995832;28;20050;-78
2022/10/31 06:59:27;;;;;;;13.25;5.65;;;;;;;5.86;100.00;95948.91;4976741;28;20121;-78
2022/10/31 07:01:53;;;;;;;13.73;5.72;;;;;;;5.93;100.00;95954.81;5002860;28;20054;-79
2022/10/31 07:04:18;;;;;;;16.58;5.60;;;;;;;5.96;100.00;95950.94;4995008;28;20049;-78
2022/10/31 07:06:44;;;;;;;12.98;5.13;;;;;;;6.03;100.00;95952.47;5013936;28;20451;-79
2022/10/31 07:09:09;;;;;;;18.80;5.80;;;;;;;6.11;100.00;95956.53;5011167;28;20050;-78
2022/10/31 07:11:35;;;;;;;17.20;6.25;;;;;;;6.17;100.00;95957.44;5007594;28;20043;-78
2022/10/31 07:14:00;;;;;;;12.32;5.85;;;;;;;6.25;100.00;95962.31;5011312;28;20042;-79
2022/10/31 07:16:26;;;;;;;12.52;5.00;;;;;;;6.33;100.00;95964.56;5005868;28;20115;-78
2022/10/31 07:18:52;;;;;;;19.05;5.57;;;;;;;6.46;100.00;95962.72;4994522;28;20034;-77
2022/10/31 07:21:17;;;;;;;16.65;6.30;;;;;;;6.61;100.00;95960.41;4993302;28;20042;-78
2022/10/31 07:23:43;;;;;;;16.00;6.05;;;;;;;6.69;100.00;95957.41;4985374;28;20046;-78
2022/10/31 07:26:09;;;;;;;18.85;5.68;;;;;;;6.74;100.00;95965.34;5004368;28;20561;-80
2022/10/31 07:28:35;;;;;;;15.32;5.95;;;;;;;6.81;100.00;95961.81;5017736;28;20045;-78
2022/10/31 07:31:01;;;;;;;17.27;6.50;;;;;;;6.85;100.00;95960.31;5007857;28;20054;-78
2022/10/31 07:33:26;;;;;;;21.60;6.05;;;;;;;6.94;100.00;95964.16;4991776;28;20073;-78
2022/10/31 07:35:53;;;;;;;21.08;6.07;;;;;;;7.00;100.00;95963.22;5008210;28;20038;-79
2022/10/31 07:38:18;;;;;;;15.77;6.35;;;;;;;7.15;100.00;95956.66;4991248;28;20648;-78
2022/10/31 07:40:49;;;;;;;24.42;6.47;;;;;;;7.24;100.00;95957.84;5009631;28;20065;-78
2022/10/31 07:43:14;;;;;;;16.98;6.13;;;;;;;7.39;100.00;95960.72;5015148;28;20482;-78
2022/10/31 07:45:40;;;;;;;21.23;7.13;;;;;;;7.50;100.00;95955.63;4980970;28;20048;-78
2022/10/31 07:48:06;;;;;;;21.30;7.25;;;;;;;7.59;100.00;95964.69;5011993;28;20045;-78
2022/10/31 07:50:35;;;;;;;23.38;6.50;;;;;;;7.70;100.00;95960.38;4988621;28;20043;-78
2022/10/31 07:53:11;;;;;;;20.08;6.60;;;;;;;7.85;100.00;95958.00;5008784;28;20445;-78
2022/10/31 07:55:37;;;;;;;20.88;6.97;;;;;;;7.92;100.00;95952.59;5010334;28;20046;-78
2022/10/31 07:58:14;;;;;;;29.42;7.07;;;;;;;8.04;100.00;95955.88;4995423;28;20056;-78
2022/10/31 08:00:42;;;;;;;15.35;6.45;;;;;;;8.19;100.00;95951.88;4985212;28;20513;-78
2022/10/31 08:03:13;;;;;;;25.77;7.10;;;;;;;8.29;100.00;95952.03;4994212;28;20118;-78
2022/10/31 08:05:40;;;;;;;20.90;6.55;;;;;;;8.40;100.00;95953.72;5003795;28;20038;-78
2022/10/31 08:08:07;;;;;;;25.35;7.00;;;;;;;8.61;100.00;95943.50;4993459;28;20041;-78
2022/10/31 08:10:33;;;;;;;23.83;7.75;;;;;;;9.02;100.00;95949.16;4995918;28;20034;-78
2022/10/31 08:13:02;;;;;;;20.05;7.43;;;;;;;9.09;100.00;95934.00;4984655;28;20499;-79
2022/10/31 08:15:28;;;;;;;23.20;6.18;;;;;;;9.15;100.00;95940.91;4998836;28;20048;-79
2022/10/31 08:17:53;;;;;;;23.30;6.43;;;;;;;9.25;100.00;95936.75;4992334;28;20145;-79
2022/10/31 08:20:20;;;;;;;24.50;6.60;;;;;;;9.34;100.00;95930.81;5015058;28;20046;-78
2022/10/31 08:23:00;;;;;;;21.48;6.60;;;;;;;9.52;100.00;95932.28;5017864;28;20037;-79
2022/10/31 08:25:28;;;;;;;18.42;6.32;;;;;;;9.65;100.00;95924.97;4995224;28;20039;-80
2022/10/31 08:27:55;;;;;;;24.70;6.82;;;;;;;9.73;100.00;95926.38;4999568;28;20057;-81
2022/10/31 08:30:22;;;;;;;23.27;6.50;;;;;;;9.96;100.00;95919.94;4997876;28;20042;-80
2022/10/31 08:32:57;;;;;;;25.35;6.80;;;;;;;10.08;100.00;95917.88;4993085;28;20041;-82
2022/10/31 08:35:23;;;;;;;28.30;7.47;;;;;;;10.27;100.00;95914.78;4992168;28;20045;-82
2022/10/31 08:37:55;;;;;;;24.63;7.38;;;;;;;10.41;100.00;95921.19;4995923;28;20113;-81
2022/10/31 08:40:22;;;;;;;20.98;7.38;;;;;;;10.46;100.00;95923.84;4999331;28;20041;-81
2022/10/31 08:42:54;;;;;;;35.90;12.52;;;;;;;10.65;100.00;95910.22;5009721;28;20038;-81
2022/10/31 08:45:20;;;;;;;39.50;17.60;;;;;;;10.78;100.00;95904.47;4997323;28;20107;-81
2022/10/31 08:47:45;;;;;;;50.83;19.45;;;;;;;11.04;100.00;95907.13;5010571;28;20494;-81
2022/10/31 08:50:11;;;;;;;50.25;17.80;;;;;;;11.18;100.00;95908.19;5002682;28;20042;-79
2022/10/31 08:52:36;;;;;;;40.13;14.70;;;;;;;11.31;100.00;95908.75;5000750;28;20076;-84
2022/10/31 08:55:02;;;;;;;35.22;12.90;;;;;;;11.54;100.00;95902.91;5012543;28;20042;-78
2022/10/31 08:57:27;;;;;;;33.83;11.32;;;;;;;12.13;100.00;95900.72;5011160;28;20046;-81
2022/10/31 08:59:53;;;;;;;27.95;10.70;;;;;;;12.44;100.00;95897.94;4988408;28;20176;-77
2022/10/31 09:02:18;;;;;;;25.63;9.25;;;;;;;12.94;100.00;95898.72;5011953;28;20498;-76
2022/10/31 09:04:44;;;;;;;32.63;9.70;;;;;;;13.28;100.00;95890.00;5007049;28;20065;-77
2022/10/31 09:07:09;;;;;;;23.48;8.60;;;;;;;13.15;100.00;95893.28;4996735;28;20046;-75
2022/10/31 09:09:35;;;;;;;22.27;8.82;;;;;;;13.08;100.00;95879.59;4997164;28;20054;-74
2022/10/31 09:12:00;;;;;;;22.20;8.20;;;;;;;13.10;100.00;95874.81;5018958;28;20546;-74
2022/10/31 09:14:26;;;;;;;30.80;8.85;;;;;;;13.18;100.00;95876.88;4997662;28;20034;-74
2022/10/31 09:16:51;;;;;;;24.23;7.78;;;;;;;13.05;100.00;95869.59;5000711;28;20097;-74
2022/10/31 09:19:17;;;;;;;28.02;8.70;;;;;;;13.31;100.00;95876.25;5001745;28;20081;-74
2022/10/31 09:21:42;;;;;;;24.02;8.57;;;;;;;14.07;100.00;95875.03;5011462;28;20522;-74
2022/10/31 09:24:08;;;;;;;26.75;7.72;;;;;;;13.89;100.00;95866.72;4997748;28;20121;-74
2022/10/31 09:26:34;;;;;;;18.48;7.60;;;;;;;13.92;100.00;95868.84;4985741;28;20584;-75
2022/10/31 09:29:01;;;;;;;31.90;8.23;;;;;;;14.19;100.00;95862.16;5001269;28;20050;-75
2022/10/31 09:31:27;;;;;;;25.35;8.10;;;;;;;14.53;100.00;95861.97;5009181;28;20041;-78
2022/10/31 09:33:54;;;;;;;28.58;7.03;;;;;;;15.55;100.00;95853.56;5012956;28;20113;-77
2022/10/31 09:36:19;;;;;;;17.27;6.15;;;;;;;16.84;100.00;95855.53;5012654;28;20498;-81
2022/10/31 09:38:45;;;;;;;22.20;6.22;;;;;;;17.07;100.00;95862.47;5016932;28;20041;-78
2022/10/31 09:41:16;;;;;;;20.80;6.28;;;;;;;17.11;100.00;95858.13;5013599;28;20169;-80
2022/10/31 09:43:46;;;;;;;21.10;5.97;;;;;;;17.95;100.00;95857.66;4995354;28;20038;-80
2022/10/31 09:46:39;;;;;;;19.98;5.95;;;;;;;18.43;100.00;95848.88;5005583;28;20045;-79
2022/10/31 09:49:30;;;;;;;22.15;6.70;;;;;;;19.08;100.00;95848.25;5004763;28;20057;-79
2022/10/31 09:52:05;;;;;;;21.27;6.28;;;;;;;17.96;100.00;95844.03;4992726;28;20513;-78
2022/10/31 09:54:54;;;;;;;18.98;6.18;;;;;;;17.99;100.00;95843.41;5005927;28;20426;-79
2022/10/31 09:57:28;;;;;;;22.23;6.18;;;;;;;18.37;100.00;95842.09;4981174;28;20038;-78
2022/10/31 09:59:54;;;;;;;25.83;6.05;;;;;;;18.91;100.00;95838.41;4994284;28;20126;-78
2022/10/31 10:02:42;;;;;;;21.40;5.55;;;;;;;18.06;100.00;95827.00;4994473;28;20046;-78
2022/10/31 10:05:25;;;;;;;26.38;6.00;;;;;;;18.04;100.00;95828.41;5009757;28;20109;-78
2022/10/31 10:08:16;;;;;;;18.70;5.95;;;;;;;17.97;100.00;95834.16;5006301;28;20057;-79
2022/10/31 10:10:56;;;;;;;17.27;5.70;;;;;;;17.94;100.00;95834.78;5003078;28;20045;-75
2022/10/31 10:13:41;;;;;;;16.55;6.25;;;;;;;18.40;100.00;95830.03;5012244;28;20038;-76
2022/10/31 10:16:36;;;;;;;19.33;5.88;;;;;;;19.54;100.00;95828.09;4993707;28;20165;-75
2022/10/31 10:19:24;;;;;;;22.33;6.15;;;;;;;19.89;100.00;95826.09;4965971;28;20062;-76
2022/10/31 10:22:08;;;;;;;18.27;5.40;;;;;;;20.30;97.53;95836.41;4976694;28;20109;-75
2022/10/31 10:25:05;;;;;;;19.40;5.47;;;;;;;20.17;100.00;95832.88;4996130;28;20498;-76
2022/10/31 10:27:39;;;;;;;17.63;5.32;;;;;;;19.45;98.19;95814.78;4988828;28;20053;-75
2022/10/31 10:30:14;;;;;;;17.05;5.30;;;;;;;19.97;100.00;95823.69;4989382;28;20497;-75
2022/10/31 10:32:46;;;;;;;24.52;5.20;;;;;;;20.40;92.64;95825.34;5008075;28;20042;-76
2022/10/31 10:35:32;;;;;;;19.33;5.10;;;;;;;19.75;89.83;95812.16;5006427;28;20116;-76
2022/10/31 10:38:15;;;;;;;17.45;4.93;;;;;;;19.81;97.02;95804.78;5001183;28;20388;-77
2022/10/31 10:40:42;;;;;;;12.07;4.40;;;;;;;19.77;88.34;95814.50;4994464;28;20392;-76
2022/10/31 10:43:36;;;;;;;21.30;5.03;;;;;;;18.89;96.86;95811.25;5003429;28;20298;-75
2022/10/31 10:49:32;;;;;;;16.88;4.55;;;;;;;18.55;96.47;95799.47;4992284;28;20412;-76
2022/10/31 10:52:02;;;;;;;17.63;5.50;;;;;;;18.52;86.02;95806.22;4986044;28;20050;-77
2022/10/31 10:54:28;;;;;;;17.52;4.20;;;;;;;18.58;85.51;95804.19;4992338;28;20101;-76
2022/10/31 10:57:21;;;;;;;19.17;4.55;;;;;;;18.21;86.63;95801.03;4991927;28;20573;-79
2022/10/31 10:59:47;;;;;;;19.77;4.45;;;;;;;18.21;97.96;95795.69;4998384;28;20049;-77
2022/10/31 11:02:24;;;;;;;14.93;4.10;;;;;;;18.38;93.51;95790.38;5010142;28;20046;-76
2022/10/31 11:04:59;;;;;;;16.83;5.55;;;;;;;18.38;94.14;95790.38;5002428;28;20038;-76
2022/10/31 11:07:25;;;;;;;13.02;3.72;;;;;;;18.25;98.19;95786.00;5022457;28;20042;-75
2022/10/31 11:10:02;;;;;;;14.95;3.70;;;;;;;18.42;96.10;95783.34;5008641;28;20490;-75
2022/10/31 11:12:33;;;;;;;13.30;3.92;;;;;;;18.31;87.16;95779.41;5010305;28;20049;-78
2022/10/31 11:15:20;;;;;;;20.08;4.10;;;;;;;18.64;84.65;95776.28;4997889;28;20080;-77
2022/10/31 11:17:49;;;;;;;16.10;4.15;;;;;;;18.65;92.80;95767.97;4999127;28;20508;-77
2022/10/31 11:20:15;;;;;;;9.25;3.80;;;;;;;18.29;91.22;95776.28;5013686;28;20686;-78
2022/10/31 11:22:43;;;;;;;13.32;3.95;;;;;;;18.77;88.77;95775.31;5018601;28;20037;-77
2022/10/31 11:25:23;;;;;;;11.93;4.20;;;;;;;19.67;85.93;95772.94;4994654;28;20572;-77
2022/10/31 11:28:08;;;;;;;15.15;4.22;;;;;;;20.39;77.04;95770.34;5010033;28;20044;-78
2022/10/31 11:30:49;;;;;;;9.60;3.53;;;;;;;21.88;71.13;95761.63;5004929;28;20053;-78
2022/10/31 11:33:30;;;;;;;12.23;3.65;;;;;;;21.45;69.83;95762.91;4992153;28;20102;-77
2022/10/31 11:35:57;;;;;;;16.38;4.38;;;;;;;21.25;67.18;95756.53;5010460;28;20048;-77
2022/10/31 11:38:41;;;;;;;18.80;4.00;;;;;;;21.36;63.21;95759.53;4993856;28;20034;-77